Time;durP1;ratioP1;P1;durP2;ratioP2;P2;SDS_P1;SDS_P2;PMS_P1;PMS_P2;Temp;Humidity;BMP_temperature;BMP_pressure;BME280_temperature;BME280_humidity;BME280_pressure;Samples;Min_cycle;Max_cycle;Signal;HPM_P1;HPM_P2
2023/03/31 00:01:06;;;;;;;8.38;3.33;;;;;;;6.99;70.16;94610.91;5068855;28;20203;-75
2023/03/31 00:03:37;;;;;;;5.72;2.92;;;;;;;6.99;69.81;94611.72;5065713;28;20629;-73
2023/03/31 00:06:05;;;;;;;6.00;3.42;;;;;;;7.07;69.40;94596.75;5058854;28;20718;-74
2023/03/31 00:08:35;;;;;;;5.18;3.13;;;;;;;7.08;70.49;94606.41;5055148;28;20294;-74
2023/03/31 00:11:03;;;;;;;7.70;3.35;;;;;;;7.10;70.96;94607.72;5068282;28;20236;-74
2023/03/31 00:13:30;;;;;;;4.68;2.60;;;;;;;7.08;70.36;94601.81;5050855;28;20203;-74
2023/03/31 00:15:59;;;;;;;5.93;2.85;;;;;;;7.08;69.98;94601.81;5059473;28;20264;-74
2023/03/31 00:18:26;;;;;;;5.05;2.38;;;;;;;7.05;70.23;94597.03;5058114;28;20290;-74
2023/03/31 00:20:53;;;;;;;6.40;2.67;;;;;;;6.96;70.32;94601.59;5052227;28;20264;-74
2023/03/31 00:23:26;;;;;;;7.13;2.78;;;;;;;7.03;71.63;94607.31;5031721;28;20196;-75
2023/03/31 00:25:54;;;;;;;4.15;2.35;;;;;;;7.16;70.18;94594.09;5055016;28;20258;-75
2023/03/31 00:28:21;;;;;;;6.22;2.40;;;;;;;7.15;69.15;94593.31;5042832;28;20311;-74
2023/03/31 00:30:48;;;;;;;7.18;2.63;;;;;;;7.16;69.67;94599.50;5059166;28;20259;-73
2023/03/31 00:33:16;;;;;;;6.63;2.72;;;;;;;7.18;69.56;94598.09;5043253;28;20728;-75
2023/03/31 00:35:44;;;;;;;6.15;2.80;;;;;;;7.19;69.78;94596.19;5040412;28;20300;-75
2023/03/31 00:38:13;;;;;;;5.50;2.67;;;;;;;7.18;70.15;94591.91;5047772;28;20203;-75
2023/03/31 00:40:46;;;;;;;9.52;2.95;;;;;;;7.42;69.79;94593.16;5034682;28;20291;-75
2023/03/31 00:43:33;;;;;;;8.50;3.20;;;;;;;7.47;69.23;94590.34;5039202;28;20242;-75
2023/03/31 00:46:14;;;;;;;4.03;2.05;;;;;;;7.36;68.51;94593.63;5041150;28;20196;-75
2023/03/31 00:48:47;;;;;;;6.03;2.35;;;;;;;7.57;69.71;94578.50;5041421;28;20222;-74
2023/03/31 00:51:14;;;;;;;2.70;1.98;;;;;;;7.68;69.49;94596.00;5039500;28;20261;-73
2023/03/31 00:53:42;;;;;;;3.22;2.33;;;;;;;7.82;67.53;94574.31;5040119;28;20203;-75
2023/03/31 00:56:13;;;;;;;5.18;2.40;;;;;;;7.98;66.52;94574.72;5034993;28;20659;-74
2023/03/31 00:58:43;;;;;;;6.88;2.85;;;;;;;7.91;67.91;94577.06;5034253;28;20553;-75
2023/03/31 01:01:14;;;;;;;4.82;2.72;;;;;;;7.95;67.76;94569.94;5038852;28;20291;-74
2023/03/31 01:03:44;;;;;;;5.50;2.50;;;;;;;7.78;69.14;94562.59;5041661;28;20565;-74
2023/03/31 01:06:13;;;;;;;6.65;2.47;;;;;;;7.96;68.95;94558.03;5037843;28;20211;-75
2023/03/31 01:08:41;;;;;;;5.65;2.58;;;;;;;7.73;69.57;94552.72;5034365;28;20203;-73
2023/03/31 01:11:12;;;;;;;4.30;2.03;;;;;;;7.50;68.27;94562.00;5047810;28;20235;-75
2023/03/31 01:13:41;;;;;;;6.72;3.13;;;;;;;7.59;69.48;94546.66;5034567;28;20195;-75
2023/03/31 01:16:07;;;;;;;8.50;2.78;;;;;;;7.80;68.09;94546.88;5035993;28;20204;-73
2023/03/31 01:18:34;;;;;;;4.70;2.70;;;;;;;7.66;68.19;94555.06;5040909;28;20240;-75
2023/03/31 01:21:33;;;;;;;14.43;5.10;;;;;;;7.71;67.99;94557.63;5039563;28;20207;-75
2023/03/31 01:24:34;;;;;;;10.95;4.47;;;;;;;7.74;68.49;94550.84;5027580;28;20250;-74
2023/03/31 01:27:32;;;;;;;9.45;3.88;;;;;;;7.73;68.85;94566.22;5036827;28;20246;-75
2023/03/31 01:30:21;;;;;;;8.82;3.90;;;;;;;7.93;68.75;94569.44;5002915;28;20235;-75
2023/03/31 01:33:17;;;;;;;8.35;4.13;;;;;;;8.11;67.60;94563.00;4994353;28;20257;-74
2023/03/31 01:36:14;;;;;;;6.57;3.25;;;;;;;8.01;67.75;94571.41;5034081;28;20573;-74
2023/03/31 01:39:21;;;;;;;10.88;4.07;;;;;;;7.90;69.02;94570.09;5039627;28;20192;-74
2023/03/31 01:42:01;;;;;;;11.38;4.50;;;;;;;7.91;69.84;94582.47;5045308;28;20253;-74
2023/03/31 01:44:40;;;;;;;9.85;3.60;;;;;;;7.95;69.75;94594.22;5040095;28;20260;-74
2023/03/31 01:47:11;;;;;;;8.77;3.90;;;;;;;8.09;71.11;94584.09;5040545;28;20204;-73
2023/03/31 01:49:44;;;;;;;11.68;4.07;;;;;;;8.07;70.01;94586.31;5044976;28;20274;-74
2023/03/31 01:52:20;;;;;;;12.90;5.25;;;;;;;8.10;69.88;94596.50;5041801;28;20200;-74
2023/03/31 01:54:52;;;;;;;9.23;3.63;;;;;;;8.10;69.80;94607.28;5037854;28;20572;-74
2023/03/31 01:57:26;;;;;;;11.15;3.75;;;;;;;8.14;68.75;94597.47;5034287;28;20257;-74
2023/03/31 01:59:59;;;;;;;10.82;3.58;;;;;;;8.13;68.91;94585.88;5034943;28;20626;-75
2023/03/31 02:02:31;;;;;;;9.13;2.58;;;;;;;7.96;67.34;94595.78;5034050;28;20200;-74
2023/03/31 02:05:01;;;;;;;5.70;3.35;;;;;;;8.09;68.94;94584.91;5037034;28;20651;-76
2023/03/31 02:07:33;;;;;;;8.60;3.33;;;;;;;8.07;68.42;94597.09;5043601;28;20698;-74
2023/03/31 02:10:04;;;;;;;10.02;3.55;;;;;;;8.07;68.79;94594.41;5046394;28;20231;-73
2023/03/31 02:12:35;;;;;;;9.32;4.10;;;;;;;8.30;67.63;94598.63;5041905;28;20671;-74
2023/03/31 02:15:08;;;;;;;9.10;4.13;;;;;;;8.18;67.20;94598.44;5043817;28;20278;-74
2023/03/31 02:17:39;;;;;;;10.07;4.25;;;;;;;8.26;67.81;94611.16;5030877;28;20196;-74
2023/03/31 02:20:11;;;;;;;9.82;3.97;;;;;;;8.40;69.28;94617.25;5063603;28;20934;-73
2023/03/31 02:22:41;;;;;;;13.85;4.45;;;;;;;8.46;69.14;94610.59;5062870;28;20207;-76
2023/03/31 02:25:11;;;;;;;9.07;3.72;;;;;;;8.44;71.92;94626.31;5058073;28;20666;-75
2023/03/31 02:27:42;;;;;;;10.30;4.13;;;;;;;8.51;70.85;94634.75;5057363;28;20585;-74
2023/03/31 02:30:09;;;;;;;11.93;6.13;;;;;;;8.30;72.08;94628.31;5067358;28;20257;-75
2023/03/31 02:32:39;;;;;;;16.83;5.03;;;;;;;8.14;71.58;94622.53;5056759;28;20677;-75
2023/03/31 02:35:07;;;;;;;16.58;5.30;;;;;;;8.07;73.63;94624.06;5060091;28;20728;-74
2023/03/31 02:37:34;;;;;;;10.50;5.47;;;;;;;8.14;73.69;94632.53;5063210;28;20207;-74
2023/03/31 02:40:09;;;;;;;10.63;4.38;;;;;;;8.10;76.06;94634.25;5059968;28;20727;-75
2023/03/31 02:42:36;;;;;;;5.57;2.60;;;;;;;8.29;73.82;94626.72;5066185;28;20210;-75
2023/03/31 02:45:07;;;;;;;8.57;2.70;;;;;;;8.50;72.86;94633.16;5050183;28;20200;-76
2023/03/31 02:47:34;;;;;;;10.90;4.25;;;;;;;8.46;74.50;94629.50;5064288;28;20211;-76
2023/03/31 02:50:03;;;;;;;7.05;3.03;;;;;;;8.34;77.45;94634.69;5061744;28;20272;-76
2023/03/31 02:52:45;;;;;;;3.95;2.38;;;;;;;8.40;75.27;94627.25;5056255;28;20242;-75
2023/03/31 02:55:38;;;;;;;2.90;1.48;;;;;;;8.65;75.79;94614.91;5055825;28;20303;-75
2023/03/31 02:58:22;;;;;;;2.60;1.40;;;;;;;8.95;73.81;94605.91;5069731;28;20199;-74
2023/03/31 03:01:04;;;;;;;1.77;0.98;;;;;;;8.94;74.27;94608.91;5056981;28;20234;-75
2023/03/31 03:03:42;;;;;;;4.50;1.27;;;;;;;8.96;74.31;94595.88;5056953;28;20207;-76
2023/03/31 03:06:22;;;;;;;1.25;0.73;;;;;;;9.06;71.94;94593.66;5059238;28;20261;-76
2023/03/31 03:09:08;;;;;;;1.30;0.90;;;;;;;9.15;72.28;94593.66;5063695;28;20577;-75
2023/03/31 03:11:45;;;;;;;1.95;1.20;;;;;;;9.17;72.56;94586.81;5063880;28;20222;-76
2023/03/31 03:14:19;;;;;;;4.80;1.42;;;;;;;9.26;71.02;94584.91;5060135;28;20679;-75
2023/03/31 03:16:50;;;;;;;1.25;1.15;;;;;;;9.32;71.00;94576.59;5056256;28;20663;-76
2023/03/31 03:19:20;;;;;;;1.50;1.33;;;;;;;9.34;71.50;94575.19;5057743;28;20227;-76
2023/03/31 03:21:47;;;;;;;4.10;1.85;;;;;;;9.39;70.71;94555.31;5063881;28;20215;-75
2023/03/31 03:24:15;;;;;;;2.53;0.95;;;;;;;9.33;71.61;94561.97;5049892;28;20196;-77
2023/03/31 03:26:43;;;;;;;1.40;1.15;;;;;;;9.30;71.81;94568.03;5049824;28;20204;-77
2023/03/31 03:29:12;;;;;;;3.22;1.35;;;;;;;9.30;73.53;94559.91;5053314;28;20588;-76
2023/03/31 03:31:38;;;;;;;1.67;1.10;;;;;;;9.21;73.63;94571.53;5057281;28;20264;-76
2023/03/31 03:34:08;;;;;;;1.60;1.45;;;;;;;9.22;74.70;94565.03;5055999;28;20261;-77
2023/03/31 03:36:36;;;;;;;4.13;1.65;;;;;;;9.18;74.36;94558.66;5061648;28;20272;-75
2023/03/31 03:39:03;;;;;;;2.03;1.05;;;;;;;9.20;75.23;94561.84;5062962;28;20202;-76
2023/03/31 03:41:32;;;;;;;1.70;1.30;;;;;;;9.29;76.28;94551.03;5057977;28;20195;-76
2023/03/31 03:43:59;;;;;;;3.05;1.52;;;;;;;9.31;76.42;94556.91;5055839;28;20214;-76
2023/03/31 03:46:26;;;;;;;3.70;1.45;;;;;;;9.24;77.57;94548.50;5061170;28;20203;-75
2023/03/31 03:48:52;;;;;;;2.10;1.50;;;;;;;9.23;77.66;94542.28;5062899;28;20199;-77
2023/03/31 03:51:21;;;;;;;1.20;1.00;;;;;;;9.01;77.92;94539.78;5058336;28;20283;-76
2023/03/31 03:53:47;;;;;;;2.42;1.65;;;;;;;8.82;78.37;94532.00;5056014;28;20218;-77
2023/03/31 03:56:14;;;;;;;2.28;1.52;;;;;;;8.75;79.46;94545.19;5060031;28;20246;-75
2023/03/31 03:58:41;;;;;;;5.75;2.33;;;;;;;8.84;79.38;94551.41;5053376;28;20203;-77
2023/03/31 04:01:08;;;;;;;3.22;1.92;;;;;;;8.83;78.27;94551.72;5060423;28;20246;-77
2023/03/31 04:03:34;;;;;;;9.43;1.92;;;;;;;8.81;77.86;94551.22;5050160;28;20195;-77
2023/03/31 04:06:01;;;;;;;6.75;2.75;;;;;;;8.78;77.92;94562.66;5058917;28;20288;-75
2023/03/31 04:08:29;;;;;;;5.60;2.25;;;;;;;8.77;78.45;94558.38;5055372;28;20230;-76
2023/03/31 04:10:56;;;;;;;3.45;2.25;;;;;;;8.76;77.93;94564.88;5057936;28;20232;-77
2023/03/31 04:13:23;;;;;;;5.90;2.63;;;;;;;8.81;76.62;94559.34;5061883;28;20203;-77
2023/03/31 04:15:49;;;;;;;5.95;2.17;;;;;;;8.82;75.96;94566.31;5059720;28;20272;-77
2023/03/31 04:18:21;;;;;;;6.10;2.42;;;;;;;8.91;75.34;94567.09;5054418;28;20324;-76
2023/03/31 04:20:53;;;;;;;5.50;3.40;;;;;;;8.88;76.66;94567.78;5056330;28;20211;-76
2023/03/31 04:23:22;;;;;;;5.00;2.95;;;;;;;8.92;76.76;94571.41;5067320;28;20260;-77
2023/03/31 04:25:50;;;;;;;7.60;3.30;;;;;;;8.91;76.99;94569.81;5068721;28;20206;-77
2023/03/31 04:28:18;;;;;;;6.88;3.50;;;;;;;8.88;76.50;94565.06;5053976;28;20219;-75
2023/03/31 04:30:45;;;;;;;6.53;3.42;;;;;;;8.83;77.51;94565.22;5064191;28;20636;-75
2023/03/31 04:33:14;;;;;;;7.07;3.67;;;;;;;8.85;77.69;94560.28;5061541;28;20612;-75
2023/03/31 04:35:51;;;;;;;6.75;3.78;;;;;;;8.95;77.75;94562.66;5061149;28;20708;-75
2023/03/31 04:38:19;;;;;;;7.32;3.45;;;;;;;8.95;77.15;94568.06;5056273;28;20195;-75
2023/03/31 04:40:47;;;;;;;5.82;3.10;;;;;;;8.92;76.98;94555.19;5064857;28;20256;-77
2023/03/31 04:43:16;;;;;;;5.30;2.95;;;;;;;8.88;75.32;94548.88;5057828;28;20199;-75
2023/03/31 04:45:43;;;;;;;6.53;3.28;;;;;;;8.99;77.01;94557.44;5064531;28;20204;-77
2023/03/31 04:48:11;;;;;;;5.25;3.33;;;;;;;9.02;77.06;94549.47;5058238;28;20585;-75
2023/03/31 04:50:38;;;;;;;8.80;4.50;;;;;;;8.99;76.86;94550.13;5053377;28;20203;-76
2023/03/31 04:53:05;;;;;;;9.38;5.32;;;;;;;9.00;77.35;94549.00;5057133;28;20851;-74
2023/03/31 04:55:32;;;;;;;18.45;6.57;;;;;;;9.06;77.35;94553.13;5051708;28;20206;-76
2023/03/31 04:57:59;;;;;;;13.75;3.80;;;;;;;9.12;76.58;94549.16;5056838;28;20196;-76
2023/03/31 05:00:27;;;;;;;13.38;5.50;;;;;;;9.29;76.67;94539.44;5061385;28;20500;-76
2023/03/31 05:02:54;;;;;;;9.63;3.75;;;;;;;9.25;76.69;94537.38;5059049;28;20272;-76
2023/03/31 05:05:21;;;;;;;7.38;2.65;;;;;;;9.26;75.65;94538.97;5063066;28;20211;-76
2023/03/31 05:07:48;;;;;;;5.78;2.92;;;;;;;9.15;76.48;94536.91;5059004;28;20207;-76
2023/03/31 05:10:15;;;;;;;3.88;2.60;;;;;;;9.10;76.39;94540.56;5066937;28;20203;-76
2023/03/31 05:12:41;;;;;;;2.40;1.65;;;;;;;9.06;76.43;94528.81;5056299;28;20332;-76
2023/03/31 05:15:09;;;;;;;10.07;3.53;;;;;;;9.17;77.39;94527.34;5060362;28;20257;-76
2023/03/31 05:17:37;;;;;;;7.45;3.90;;;;;;;9.33;76.67;94524.94;5059194;28;20970;-76
2023/03/31 05:20:07;;;;;;;4.72;2.10;;;;;;;9.34;75.07;94510.31;5048473;28;20301;-77
2023/03/31 05:22:35;;;;;;;14.95;6.88;;;;;;;9.26;75.80;94503.81;5058913;28;20238;-76
2023/03/31 05:25:03;;;;;;;7.57;2.85;;;;;;;9.21;75.44;94495.88;5066583;28;20661;-74
2023/03/31 05:27:29;;;;;;;7.90;3.22;;;;;;;9.45;76.64;94506.13;5054240;28;20592;-77
2023/03/31 05:29:57;;;;;;;7.20;2.75;;;;;;;9.90;73.48;94509.13;5053752;28;20206;-76
2023/03/31 05:32:24;;;;;;;11.30;5.15;;;;;;;9.91;73.40;94509.94;5053964;28;20239;-76
2023/03/31 05:34:55;;;;;;;6.35;3.30;;;;;;;9.67;72.97;94507.81;5060533;28;20207;-74
2023/03/31 05:37:23;;;;;;;10.60;3.33;;;;;;;10.02;73.38;94503.03;5059848;28;20211;-75
2023/03/31 05:39:51;;;;;;;7.60;2.53;;;;;;;10.12;71.77;94501.84;5057440;28;20367;-74
2023/03/31 05:42:18;;;;;;;9.73;3.00;;;;;;;10.32;70.62;94493.81;5051202;28;20210;-75
2023/03/31 05:44:46;;;;;;;6.00;3.55;;;;;;;10.09;71.51;94502.53;5059315;28;20205;-75
2023/03/31 05:47:12;;;;;;;10.88;5.15;;;;;;;10.57;72.68;94508.28;5061297;28;20906;-75
2023/03/31 05:49:39;;;;;;;7.10;5.03;;;;;;;10.37;71.67;94498.25;5059411;28;20203;-76
2023/03/31 05:52:08;;;;;;;5.22;2.20;;;;;;;10.15;72.49;94507.41;5057366;28;20232;-75
2023/03/31 05:54:35;;;;;;;9.70;5.30;;;;;;;10.53;73.30;94501.94;5066228;28;20195;-75
2023/03/31 05:57:02;;;;;;;7.50;3.53;;;;;;;11.11;71.00;94511.00;5057641;28;20227;-77
2023/03/31 05:59:29;;;;;;;10.45;4.60;;;;;;;11.53;71.24;94510.91;5061374;28;20203;-75
2023/03/31 06:01:57;;;;;;;6.30;3.40;;;;;;;11.50;68.21;94506.16;5064337;28;20295;-77
2023/03/31 06:04:24;;;;;;;12.60;4.00;;;;;;;11.15;69.25;94511.94;5060120;28;20207;-75
2023/03/31 06:06:50;;;;;;;6.97;3.50;;;;;;;11.02;69.45;94502.97;5058690;28;20205;-74
2023/03/31 06:09:20;;;;;;;14.10;3.80;;;;;;;10.81;70.98;94517.66;5061951;28;20191;-74
2023/03/31 06:11:47;;;;;;;8.25;4.00;;;;;;;10.84;71.04;94517.00;5057365;28;20235;-75
2023/03/31 06:14:14;;;;;;;9.35;3.60;;;;;;;10.75;71.04;94521.69;5070585;28;20202;-75
2023/03/31 06:16:40;;;;;;;10.00;4.07;;;;;;;10.34;72.26;94525.97;5053575;28;20286;-74
2023/03/31 06:19:07;;;;;;;11.85;6.55;;;;;;;10.36;72.49;94515.63;5049049;28;20274;-74
2023/03/31 06:21:34;;;;;;;9.77;5.82;;;;;;;10.50;72.37;94518.88;5036881;28;20203;-73
2023/03/31 06:24:01;;;;;;;11.75;6.38;;;;;;;10.71;73.44;94501.81;5049512;28;20729;-75
2023/03/31 06:26:29;;;;;;;16.33;7.47;;;;;;;10.90;71.45;94504.84;5045594;28;20200;-75
2023/03/31 06:28:56;;;;;;;9.95;5.60;;;;;;;10.63;71.58;94509.69;5039379;28;20649;-74
2023/03/31 06:31:25;;;;;;;11.00;5.53;;;;;;;10.52;71.97;94515.81;5043190;28;20722;-74
2023/03/31 06:33:52;;;;;;;12.05;4.47;;;;;;;10.44;72.57;94514.75;5042911;28;20203;-74
2023/03/31 06:36:21;;;;;;;12.23;5.95;;;;;;;10.97;71.41;94511.28;5036765;28;20207;-73
2023/03/31 06:38:49;;;;;;;8.38;4.93;;;;;;;11.36;69.97;94511.88;5036542;28;20204;-74
2023/03/31 06:41:19;;;;;;;6.95;3.92;;;;;;;11.51;69.14;94494.16;5049721;28;20211;-75
2023/03/31 06:43:47;;;;;;;7.90;4.07;;;;;;;11.40;69.41;94523.66;5035464;28;20215;-74
2023/03/31 06:46:15;;;;;;;9.27;5.30;;;;;;;11.76;68.83;94501.25;5039375;28;20217;-75
2023/03/31 06:48:41;;;;;;;19.30;8.77;;;;;;;12.33;68.11;94505.78;5043201;28;20200;-75
2023/03/31 06:51:08;;;;;;;16.08;5.53;;;;;;;12.53;66.73;94509.50;5037191;28;20293;-74
2023/03/31 06:53:35;;;;;;;13.13;5.32;;;;;;;12.46;66.89;94504.63;5036308;28;20204;-75
2023/03/31 06:56:03;;;;;;;12.93;5.25;;;;;;;12.10;66.86;94508.97;5042211;28;20208;-75
2023/03/31 06:58:30;;;;;;;11.52;4.75;;;;;;;12.01;66.44;94516.44;5035227;28;20208;-75
2023/03/31 07:00:58;;;;;;;13.80;6.85;;;;;;;11.95;66.73;94506.94;5037687;28;20229;-75
2023/03/31 07:03:25;;;;;;;15.05;6.50;;;;;;;12.50;65.86;94505.53;5036245;28;20652;-75
2023/03/31 07:05:55;;;;;;;13.88;4.88;;;;;;;13.58;63.03;94491.09;5041089;28;20212;-75
2023/03/31 07:08:23;;;;;;;15.13;4.65;;;;;;;14.17;60.96;94478.19;5042670;28;20213;-74
2023/03/31 07:10:54;;;;;;;6.55;3.92;;;;;;;14.53;60.11;94484.47;5039350;28;20207;-75
2023/03/31 07:13:20;;;;;;;9.50;4.00;;;;;;;14.39;59.96;94445.97;5036100;28;20310;-73
2023/03/31 07:15:48;;;;;;;5.57;3.33;;;;;;;14.31;57.75;94449.69;5049692;28;20221;-73
2023/03/31 07:18:17;;;;;;;10.13;4.45;;;;;;;15.43;56.80;94442.25;5039789;28;20238;-74
2023/03/31 07:20:47;;;;;;;13.27;5.82;;;;;;;16.06;54.59;94439.06;5058035;28;20238;-75
2023/03/31 07:23:14;;;;;;;9.77;5.45;;;;;;;15.45;54.26;94437.19;5066571;28;20743;-74
2023/03/31 07:25:44;;;;;;;14.05;4.28;;;;;;;15.15;54.51;94433.53;5069212;28;20265;-75
2023/03/31 07:28:11;;;;;;;14.05;5.55;;;;;;;15.36;56.40;94431.19;5056262;28;20233;-74
2023/03/31 07:30:37;;;;;;;13.77;5.13;;;;;;;15.47;53.39;94418.53;5065179;28;20211;-73
2023/03/31 07:33:06;;;;;;;6.75;4.47;;;;;;;16.02;52.58;94418.28;5056013;28;20287;-73
2023/03/31 07:35:37;;;;;;;11.27;3.00;;;;;;;16.56;49.77;94426.09;5056483;28;20236;-74
2023/03/31 07:38:03;;;;;;;11.20;3.75;;;;;;;17.05;49.32;94432.25;5049327;28;20249;-74
2023/03/31 07:40:30;;;;;;;6.25;3.20;;;;;;;16.79;47.53;94429.59;5062202;28;20203;-73
2023/03/31 07:42:57;;;;;;;7.10;2.97;;;;;;;17.38;47.44;94414.19;5055383;28;20748;-74
2023/03/31 07:45:25;;;;;;;7.05;3.30;;;;;;;17.21;47.40;94414.81;5055085;28;20253;-73
2023/03/31 07:47:52;;;;;;;7.60;3.65;;;;;;;16.45;47.85;94411.50;5060966;28;20200;-73
2023/03/31 07:50:20;;;;;;;4.25;3.45;;;;;;;16.39;48.10;94402.06;5049028;28;20199;-73
2023/03/31 07:52:48;;;;;;;11.40;3.55;;;;;;;16.68;48.11;94414.97;5068436;28;20243;-74
2023/03/31 07:55:15;;;;;;;8.73;3.35;;;;;;;16.59;47.75;94417.16;5054989;28;20196;-76
2023/03/31 07:57:44;;;;;;;8.23;3.85;;;;;;;16.17;48.32;94404.47;5060406;28;20726;-78
2023/03/31 08:00:12;;;;;;;9.32;3.85;;;;;;;16.03;48.67;94415.19;5061848;28;20551;-73
2023/03/31 08:02:41;;;;;;;9.32;3.90;;;;;;;16.10;49.04;94403.59;5058399;28;20230;-74
2023/03/31 08:05:10;;;;;;;5.35;3.28;;;;;;;16.37;48.25;94398.91;5055011;28;20206;-74
2023/03/31 08:07:38;;;;;;;5.95;2.88;;;;;;;15.86;47.72;94391.09;5058780;28;20277;-77
2023/03/31 08:10:09;;;;;;;6.38;2.95;;;;;;;16.12;47.25;94393.09;5062323;28;20310;-78
2023/03/31 08:12:36;;;;;;;7.65;3.10;;;;;;;16.37;47.52;94398.91;5060695;28;20238;-75
2023/03/31 08:15:04;;;;;;;5.75;2.60;;;;;;;15.99;47.40;94376.09;5056819;28;20237;-75
2023/03/31 08:17:30;;;;;;;4.93;2.22;;;;;;;15.42;48.02;94380.63;5060541;28;20207;-76
2023/03/31 08:19:57;;;;;;;6.22;2.53;;;;;;;15.81;47.61;94388.69;5052853;28;20312;-73
2023/03/31 08:22:24;;;;;;;10.73;2.47;;;;;;;15.59;48.15;94393.00;5068084;28;20203;-75
2023/03/31 08:24:51;;;;;;;7.05;2.60;;;;;;;15.57;47.42;94382.47;5062608;28;20246;-73
2023/03/31 08:27:19;;;;;;;4.22;2.10;;;;;;;15.69;45.59;94376.03;5060247;28;20218;-77
2023/03/31 08:29:45;;;;;;;6.05;2.30;;;;;;;15.93;46.18;94378.34;5052757;28;20195;-73
2023/03/31 08:32:12;;;;;;;4.35;2.20;;;;;;;15.44;47.13;94381.06;5060592;28;20232;-88
2023/03/31 08:34:41;;;;;;;6.75;2.30;;;;;;;15.54;47.13;94383.16;5055044;28;20202;-74
2023/03/31 08:37:08;;;;;;;9.00;2.83;;;;;;;15.67;46.93;94381.06;5055282;28;20214;-73
2023/03/31 08:39:36;;;;;;;5.75;1.90;;;;;;;15.58;46.22;94370.38;5061173;28;20207;-75
2023/03/31 08:42:07;;;;;;;8.07;2.45;;;;;;;16.16;46.27;94364.63;5060995;28;20211;-74
2023/03/31 08:44:41;;;;;;;3.38;2.17;;;;;;;16.17;45.14;94371.69;5055287;28;20260;-75
2023/03/31 08:47:15;;;;;;;5.88;1.83;;;;;;;16.00;45.34;94388.59;5054721;28;20249;-75
2023/03/31 08:49:46;;;;;;;4.50;1.63;;;;;;;15.95;46.18;94378.00;5059137;28;20257;-77
2023/03/31 08:52:17;;;;;;;12.43;2.17;;;;;;;16.01;45.60;94379.25;5061518;28;20628;-74
2023/03/31 08:54:48;;;;;;;2.53;2.05;;;;;;;15.98;45.52;94371.81;5058569;28;20248;-77
2023/03/31 08:57:19;;;;;;;2.85;1.95;;;;;;;16.57;45.24;94375.72;5054424;28;20207;-73
2023/03/31 08:59:49;;;;;;;3.17;1.90;;;;;;;16.24;44.61;94362.81;5055511;28;20745;-75
2023/03/31 09:02:25;;;;;;;6.88;2.60;;;;;;;16.09;45.27;94370.00;5060791;28;20666;-74
2023/03/31 09:05:23;;;;;;;4.32;2.15;;;;;;;15.87;45.32;94368.09;5061160;28;20198;-73
2023/03/31 09:08:00;;;;;;;11.40;2.28;;;;;;;15.91;46.31;94356.06;5047809;28;20245;-75
2023/03/31 09:10:35;;;;;;;4.93;1.98;;;;;;;15.46;46.82;94351.44;5054246;28;21030;-74
2023/03/31 09:13:17;;;;;;;3.45;1.75;;;;;;;15.10;46.96;94354.72;5053724;28;20662;-80
2023/03/31 09:15:52;;;;;;;2.78;1.70;;;;;;;15.07;47.50;94360.88;5057406;28;20253;-74
2023/03/31 09:18:26;;;;;;;10.93;2.13;;;;;;;15.26;47.99;94352.66;5060686;28;20289;-74
2023/03/31 09:20:58;;;;;;;5.57;1.52;;;;;;;15.89;46.41;94357.59;5047706;28;20203;-74
2023/03/31 09:23:29;;;;;;;3.22;1.75;;;;;;;16.41;44.60;94348.56;5061567;28;20210;-76
2023/03/31 09:25:58;;;;;;;5.15;1.95;;;;;;;17.15;43.30;94339.66;5086469;28;20703;-74
2023/03/31 09:28:31;;;;;;;5.82;1.60;;;;;;;17.44;42.56;94327.81;5047538;28;20228;-74
2023/03/31 09:30:59;;;;;;;2.58;1.13;;;;;;;17.13;42.22;94336.50;5053347;28;20199;-75
2023/03/31 09:33:30;;;;;;;4.65;1.48;;;;;;;17.32;42.28;94344.53;5067826;28;20230;-75
2023/03/31 09:35:58;;;;;;;2.65;1.73;;;;;;;17.31;42.64;94340.22;5054136;28;20256;-75
2023/03/31 09:38:28;;;;;;;6.38;1.80;;;;;;;17.75;42.23;94343.75;5057612;28;20206;-73
2023/03/31 09:40:55;;;;;;;3.88;1.80;;;;;;;18.26;41.51;94323.72;5063942;28;20210;-73
2023/03/31 09:43:24;;;;;;;5.65;1.67;;;;;;;18.07;41.13;94345.94;5057021;28;20215;-73
2023/03/31 09:45:51;;;;;;;7.45;1.80;;;;;;;17.97;41.73;94330.19;5061060;28;20207;-74
2023/03/31 09:48:23;;;;;;;6.82;2.10;;;;;;;17.62;41.45;94341.66;5058717;28;20238;-74
2023/03/31 09:50:55;;;;;;;4.85;1.98;;;;;;;17.52;42.23;94332.19;5053735;28;20203;-73
2023/03/31 09:53:32;;;;;;;5.45;1.95;;;;;;;17.45;42.84;94321.19;5054679;28;20844;-74
2023/03/31 09:56:02;;;;;;;3.20;1.73;;;;;;;17.71;41.86;94326.50;5054222;28;20259;-73
2023/03/31 09:58:29;;;;;;;5.97;2.03;;;;;;;17.85;42.14;94319.56;5053492;28;20204;-77
2023/03/31 10:01:00;;;;;;;6.05;2.00;;;;;;;17.95;42.27;94318.84;5059415;28;20302;-75
2023/03/31 10:03:35;;;;;;;5.10;1.95;;;;;;;18.06;41.83;94323.22;5060274;28;20677;-72
2023/03/31 10:06:03;;;;;;;6.60;1.42;;;;;;;17.68;41.83;94313.56;5056711;28;20198;-73
2023/03/31 10:08:32;;;;;;;4.72;1.65;;;;;;;18.34;40.59;94322.59;5053504;28;20207;-74
2023/03/31 10:11:10;;;;;;;4.60;1.55;;;;;;;18.53;40.98;94312.50;5056837;28;20617;-73
2023/03/31 10:13:45;;;;;;;6.43;1.80;;;;;;;18.98;39.48;94305.63;5060638;28;20231;-74
2023/03/31 10:16:20;;;;;;;3.47;1.77;;;;;;;19.00;39.56;94295.78;5046969;28;20666;-73
2023/03/31 10:18:49;;;;;;;6.30;2.00;;;;;;;19.38;39.46;94297.06;5054144;28;20227;-72
2023/03/31 10:21:22;;;;;;;6.95;2.10;;;;;;;19.59;38.54;94290.00;5052990;28;20923;-76
2023/03/31 10:23:50;;;;;;;10.00;2.03;;;;;;;19.74;38.77;94288.81;5056206;28;20319;-76
2023/03/31 10:26:20;;;;;;;8.88;3.88;;;;;;;19.29;38.98;94287.59;5061548;28;20825;-73
2023/03/31 10:28:49;;;;;;;8.30;1.77;;;;;;;18.87;38.96;94288.31;5060992;28;20219;-74
2023/03/31 10:31:16;;;;;;;6.43;1.73;;;;;;;18.78;39.38;94285.94;5065384;28;20288;-74
2023/03/31 10:33:46;;;;;;;10.98;2.30;;;;;;;18.45;40.47;94281.47;5061695;28;20207;-74
2023/03/31 10:36:22;;;;;;;4.05;1.95;;;;;;;18.46;40.41;94283.84;5067404;28;20253;-72
2023/03/31 10:38:51;;;;;;;8.45;1.85;;;;;;;18.63;40.41;94278.84;5056839;28;20265;-73
2023/03/31 10:41:21;;;;;;;3.80;1.85;;;;;;;18.65;40.35;94271.81;5060365;28;20298;-73
2023/03/31 10:43:51;;;;;;;4.88;2.22;;;;;;;19.01;39.98;94261.69;5064000;28;20306;-74
2023/03/31 10:46:18;;;;;;;4.32;1.80;;;;;;;19.07;39.26;94259.34;5061786;28;20231;-74
2023/03/31 10:48:45;;;;;;;5.93;2.00;;;;;;;18.66;40.24;94267.88;5054085;28;20203;-73
2023/03/31 10:51:15;;;;;;;4.32;1.80;;;;;;;18.80;39.79;94272.63;5070143;28;20618;-74
2023/03/31 10:53:45;;;;;;;4.95;1.50;;;;;;;18.53;40.52;94257.63;5057826;28;20208;-75
2023/03/31 10:56:34;;;;;;;5.82;2.00;;;;;;;18.44;40.22;94264.28;5061068;28;20569;-75
2023/03/31 10:59:41;;;;;;;6.15;1.63;;;;;;;18.31;40.35;94257.53;5063068;28;20206;-73
2023/03/31 11:02:38;;;;;;;4.25;1.70;;;;;;;18.36;40.22;94259.91;5032732;28;20200;-74
2023/03/31 11:05:15;;;;;;;3.45;1.70;;;;;;;17.98;41.18;94257.78;5062822;28;20295;-74
2023/03/31 11:07:55;;;;;;;4.28;1.90;;;;;;;17.98;41.66;94244.06;5060418;28;20309;-74
2023/03/31 11:10:36;;;;;;;4.75;1.60;;;;;;;17.98;41.12;94235.84;5056007;28;20712;-74
2023/03/31 11:13:10;;;;;;;4.50;2.00;;;;;;;18.18;41.02;94247.31;5055498;28;20207;-73
2023/03/31 11:15:43;;;;;;;3.20;2.03;;;;;;;18.11;41.26;94253.53;5060579;28;20203;-73
2023/03/31 11:18:32;;;;;;;4.70;1.60;;;;;;;17.87;40.91;94227.56;5062480;28;20232;-72
2023/03/31 11:21:07;;;;;;;4.53;2.80;;;;;;;17.86;41.35;94247.13;5062408;28;20211;-75
2023/03/31 11:23:41;;;;;;;4.50;1.88;;;;;;;17.70;42.30;94236.47;5057638;28;20314;-73
2023/03/31 11:26:13;;;;;;;5.45;2.20;;;;;;;18.10;40.98;94230.81;5055361;28;20199;-74
2023/03/31 11:28:58;;;;;;;6.90;1.65;;;;;;;18.33;40.83;94216.78;5060022;28;20637;-74
2023/03/31 11:31:37;;;;;;;4.75;1.83;;;;;;;18.51;40.52;94205.09;5055930;28;20824;-74
2023/03/31 11:34:35;;;;;;;2.85;1.60;;;;;;;18.18;40.31;94217.91;5055821;28;20199;-74
2023/03/31 11:37:20;;;;;;;4.90;1.90;;;;;;;18.27;40.80;94217.56;5057954;28;20203;-75
2023/03/31 11:39:58;;;;;;;3.20;1.60;;;;;;;18.42;41.20;94209.00;5056307;28;20232;-75
2023/03/31 11:42:29;;;;;;;3.15;1.65;;;;;;;18.51;40.53;94205.09;5054776;28;20730;-72
2023/03/31 11:45:03;;;;;;;4.00;1.90;;;;;;;18.33;40.63;94208.56;5059273;28;20234;-74
2023/03/31 11:47:36;;;;;;;6.22;1.95;;;;;;;18.09;41.58;94212.78;5061670;28;20708;-73
2023/03/31 11:50:10;;;;;;;9.45;2.28;;;;;;;17.35;42.90;94201.41;5060838;28;20196;-73
2023/03/31 11:52:41;;;;;;;7.45;2.10;;;;;;;17.61;42.78;94209.41;5058826;28;20273;-77
2023/03/31 11:55:16;;;;;;;4.53;2.22;;;;;;;17.44;43.05;94207.31;5054142;28;20884;-76